createdAt,value
2022-10-28T00:00:35.415Z,9.73
2022-10-28T00:04:38.216Z,11.77
2022-10-28T00:08:41.598Z,9.98
2022-10-28T00:12:44.369Z,8.82
2022-10-28T00:16:47.150Z,9.23
2022-10-28T00:20:49.885Z,8.65
2022-10-28T00:24:53.652Z,10.25
2022-10-28T00:28:59.997Z,8.70
2022-10-28T00:33:02.926Z,8.25
2022-10-28T00:37:05.658Z,8.30
2022-10-28T00:41:10.065Z,8.60
2022-10-28T00:45:12.992Z,9.50
2022-10-28T00:49:22.277Z,10.02
2022-10-28T00:53:28.943Z,9.05
2022-10-28T00:57:36.067Z,9.65
2022-10-28T01:01:38.937Z,9.73
2022-10-28T01:05:45.072Z,10.60
2022-10-28T01:09:48.222Z,10.60
2022-10-28T01:14:07.604Z,10.50
2022-10-28T01:18:37.078Z,9.70
2022-10-28T01:22:47.192Z,9.43
2022-10-28T01:26:52.859Z,10.55
2022-10-28T01:31:14.682Z,10.40
2022-10-28T01:35:36.080Z,10.35
2022-10-28T01:39:59.510Z,10.43
2022-10-28T01:44:14.370Z,9.90
2022-10-28T01:48:21.346Z,10.35
2022-10-28T01:52:27.807Z,11.32
2022-10-28T01:56:37.962Z,10.75
2022-10-28T02:00:43.158Z,10.45
2022-10-28T02:04:48.005Z,10.55
2022-10-28T02:08:56.579Z,12.15
2022-10-28T02:13:02.890Z,11.90
2022-10-28T02:17:21.229Z,11.10
2022-10-28T02:21:48.184Z,11.02
2022-10-28T02:26:02.733Z,10.73
2022-10-28T02:30:17.395Z,11.05
2022-10-28T02:34:27.626Z,10.95
2022-10-28T02:38:49.043Z,13.27
2022-10-28T02:42:59.459Z,12.25
2022-10-28T02:47:09.869Z,11.07
2022-10-28T02:51:29.039Z,11.77
2022-10-28T02:55:40.128Z,10.93
2022-10-28T02:59:47.773Z,11.75
2022-10-28T03:03:55.038Z,11.63
2022-10-28T03:07:58.192Z,12.88
2022-10-28T03:12:01.140Z,11.57
2022-10-28T03:16:04.124Z,11.93
2022-10-28T03:20:07.552Z,11.95
2022-10-28T03:24:10.319Z,11.38
2022-10-28T03:28:16.443Z,11.40
2022-10-28T03:32:19.388Z,10.82
2022-10-28T03:36:22.427Z,9.68
2022-10-28T03:40:25.345Z,11.75
2022-10-28T03:44:30.711Z,10.77
2022-10-28T03:48:33.676Z,10.60
2022-10-28T03:52:36.568Z,11.48
2022-10-28T03:56:43.786Z,12.40
2022-10-28T04:00:52.052Z,11.98
2022-10-28T04:04:55.325Z,10.65
2022-10-28T04:08:58.301Z,11.43
2022-10-28T04:13:02.294Z,11.57
2022-10-28T04:17:05.180Z,13.68
2022-10-28T04:21:07.977Z,13.13
2022-10-28T04:25:10.984Z,12.05
2022-10-28T04:29:14.573Z,13.77
2022-10-28T04:33:18.002Z,11.02
2022-10-28T04:37:20.824Z,11.43
2022-10-28T04:41:23.625Z,12.07
2022-10-28T04:45:28.921Z,13.30
2022-10-28T04:49:35.418Z,12.95
2022-10-28T04:53:41.220Z,12.20
2022-10-28T04:57:44.382Z,12.05
2022-10-28T05:01:47.337Z,12.77
2022-10-28T05:05:50.232Z,13.48
2022-10-28T05:09:53.003Z,12.52
2022-10-28T05:13:55.967Z,11.75
2022-10-28T05:17:58.965Z,13.60
2022-10-28T05:22:01.709Z,13.45
2022-10-28T05:26:04.783Z,12.07
2022-10-28T05:30:08.308Z,12.52
2022-10-28T05:34:14.286Z,13.88
2022-10-28T05:38:17.225Z,13.40
2022-10-28T05:42:20.055Z,13.77
2022-10-28T05:46:22.981Z,13.57
2022-10-28T05:50:25.868Z,14.20
2022-10-28T05:54:28.680Z,13.27
2022-10-28T05:58:34.617Z,13.90
2022-10-28T06:02:37.520Z,14.40
2022-10-28T06:06:40.554Z,14.98
2022-10-28T06:10:49.530Z,15.57
2022-10-28T06:14:52.355Z,14.13
2022-10-28T06:18:55.877Z,13.70
2022-10-28T06:22:58.924Z,15.38
2022-10-28T06:27:02.130Z,14.25
2022-10-28T06:31:07.680Z,13.80
2022-10-28T06:35:10.691Z,14.10
2022-10-28T06:39:13.600Z,14.15
2022-10-28T06:43:16.406Z,17.23
2022-10-28T06:47:21.201Z,15.63
2022-10-28T06:51:24.393Z,16.55
2022-10-28T06:55:27.938Z,28.25
2022-10-28T06:59:30.694Z,27.08
2022-10-28T07:03:33.457Z,31.52
2022-10-28T07:07:39.449Z,31.30
2022-10-28T07:11:45.472Z,31.75
2022-10-28T07:15:56.307Z,28.13
2022-10-28T07:19:59.138Z,29.13
2022-10-28T07:24:03.083Z,34.17
2022-10-28T07:28:06.245Z,20.48
2022-10-28T07:32:09.030Z,17.00
2022-10-28T07:36:12.160Z,16.02
2022-10-28T07:40:15.140Z,16.48
2022-10-28T07:44:17.849Z,16.60
2022-10-28T07:48:20.568Z,15.43
2022-10-28T07:52:23.503Z,14.93
2022-10-28T07:56:26.703Z,15.27
2022-10-28T08:00:29.451Z,15.75
2022-10-28T08:04:33.893Z,16.33
2022-10-28T08:08:37.672Z,18.90
2022-10-28T08:12:41.039Z,22.48
2022-10-28T08:16:43.780Z,21.05
2022-10-28T08:20:46.695Z,22.70
2022-10-28T08:24:49.577Z,26.27
2022-10-28T08:28:53.231Z,23.75
2022-10-28T08:32:56.474Z,20.65
2022-10-28T08:36:59.670Z,20.13
2022-10-28T08:41:25.370Z,19.55
2022-10-28T08:45:54.532Z,18.00
2022-10-28T08:50:03.662Z,18.85
2022-10-28T08:54:17.216Z,19.45
2022-10-28T08:58:25.479Z,16.50
2022-10-28T09:02:36.223Z,17.58
2022-10-28T09:06:39.009Z,14.57
2022-10-28T09:10:47.875Z,14.57
2022-10-28T09:14:53.429Z,13.88
2022-10-28T09:18:58.598Z,14.23
2022-10-28T09:23:17.388Z,14.88
2022-10-28T09:27:57.906Z,18.08
2022-10-28T09:32:13.750Z,18.90
2022-10-28T09:36:25.011Z,15.93
2022-10-28T09:40:31.089Z,15.55
2022-10-28T09:44:40.328Z,14.25
2022-10-28T09:48:55.798Z,12.02
2022-10-28T09:53:04.258Z,13.05
2022-10-28T09:57:07.352Z,11.88
2022-10-28T10:01:10.167Z,13.50
2022-10-28T10:05:16.986Z,12.18
2022-10-28T10:09:26.776Z,11.73
2022-10-28T10:13:35.261Z,10.98
2022-10-28T10:17:43.013Z,12.35
2022-10-28T10:21:54.307Z,11.32
2022-10-28T10:26:11.117Z,11.18
2022-10-28T10:30:22.274Z,10.55
2022-10-28T10:34:27.362Z,10.57
2022-10-28T10:38:31.434Z,10.10
2022-10-28T10:42:39.243Z,10.63
2022-10-28T10:46:55.573Z,10.95
2022-10-28T10:50:59.023Z,10.63
2022-10-28T10:55:06.937Z,11.10
2022-10-28T10:59:37.703Z,9.68
2022-10-28T11:04:14.113Z,10.55
2022-10-28T11:08:34.209Z,10.77
2022-10-28T11:12:37.517Z,10.60
2022-10-28T11:16:52.414Z,10.05
2022-10-28T11:21:01.038Z,10.18
2022-10-28T11:25:22.830Z,9.18
2022-10-28T11:29:25.856Z,9.23
2022-10-28T11:33:51.691Z,7.57
2022-10-28T11:38:12.549Z,7.20
2022-10-28T11:42:46.158Z,7.03
2022-10-28T11:47:02.435Z,7.07
2022-10-28T11:51:29.083Z,7.47
2022-10-28T11:56:02.388Z,7.40
2022-10-28T12:00:19.019Z,6.55
2022-10-28T12:04:56.744Z,6.00
2022-10-28T12:09:26.498Z,6.72
2022-10-28T12:13:49.054Z,6.18
2022-10-28T12:18:14.999Z,6.35
2022-10-28T12:22:41.205Z,5.00
2022-10-28T12:26:50.468Z,4.45
2022-10-28T12:30:55.014Z,4.28
2022-10-28T12:35:27.314Z,3.10
2022-10-28T12:40:08.910Z,3.35
2022-10-28T12:54:39.641Z,3.58
2022-10-28T12:59:44.873Z,2.83
2022-10-28T13:03:45.859Z,3.42
2022-10-28T13:07:59.869Z,3.25
2022-10-28T13:12:14.998Z,3.63
2022-10-28T13:17:03.196Z,3.42
2022-10-28T13:21:29.772Z,3.40
2022-10-28T13:26:09.407Z,3.83
2022-10-28T13:30:23.590Z,3.40
2022-10-28T13:34:37.695Z,3.53
2022-10-28T13:38:41.486Z,3.45
2022-10-28T13:42:49.182Z,3.47
2022-10-28T13:47:03.737Z,3.25
2022-10-28T13:51:09.713Z,3.20
2022-10-28T13:55:27.836Z,3.65
2022-10-28T13:59:38.684Z,3.40
2022-10-28T14:03:52.333Z,3.15
2022-10-28T14:07:58.697Z,3.75
2022-10-28T14:16:27.799Z,4.03
2022-10-28T14:20:40.909Z,4.10
2022-10-28T14:24:45.954Z,3.97
2022-10-28T14:28:51.048Z,3.50
2022-10-28T14:33:00.678Z,3.42
2022-10-28T14:37:55.653Z,3.55
2022-10-28T14:42:09.373Z,3.47
2022-10-28T14:46:27.646Z,3.63
2022-10-28T14:50:51.727Z,5.28
2022-10-28T14:54:57.744Z,4.97
2022-10-28T14:59:36.239Z,3.53
2022-10-28T15:03:39.473Z,4.63
2022-10-28T15:07:43.315Z,4.00
2022-10-28T15:11:50.551Z,3.80
2022-10-28T15:15:59.329Z,4.40
2022-10-28T15:20:23.795Z,5.03
2022-10-28T15:24:29.273Z,4.63
2022-10-28T15:28:37.336Z,4.78
2022-10-28T15:33:14.667Z,5.32
2022-10-28T15:38:03.724Z,4.05
2022-10-28T15:42:29.198Z,4.70
2022-10-28T15:46:34.231Z,4.18
2022-10-28T15:50:37.110Z,4.45
2022-10-28T15:54:40.679Z,4.13
2022-10-28T15:58:49.565Z,4.82
2022-10-28T16:02:58.378Z,5.20
2022-10-28T16:07:08.422Z,5.68
2022-10-28T16:11:20.322Z,4.50
2022-10-28T16:15:23.506Z,4.80
2022-10-28T16:19:30.724Z,4.88
2022-10-28T16:23:45.886Z,4.75
2022-10-28T16:27:53.040Z,4.85
2022-10-28T16:31:59.400Z,4.28
2022-10-28T16:36:03.372Z,4.55
2022-10-28T16:40:24.905Z,3.88
2022-10-28T16:44:47.082Z,3.92
2022-10-28T16:48:50.182Z,3.65
2022-10-28T16:52:55.130Z,3.80
2022-10-28T16:56:59.426Z,3.40
2022-10-28T17:01:02.481Z,3.30
2022-10-28T17:05:07.459Z,3.47
2022-10-28T17:09:10.403Z,3.42
2022-10-28T17:13:14.830Z,3.67
2022-10-28T17:17:18.302Z,3.13
2022-10-28T17:21:21.207Z,3.65
2022-10-28T17:25:25.113Z,3.78
2022-10-28T17:29:28.030Z,3.88
2022-10-28T17:33:30.996Z,4.55
2022-10-28T17:37:34.147Z,4.05
2022-10-28T17:41:37.005Z,4.82
2022-10-28T17:45:40.571Z,3.90
2022-10-28T17:49:43.408Z,4.45
2022-10-28T17:53:46.903Z,4.00
2022-10-28T17:57:49.897Z,4.65
2022-10-28T18:01:54.407Z,4.40
2022-10-28T18:06:01.567Z,4.55
2022-10-28T18:10:04.651Z,4.40
2022-10-28T18:14:07.616Z,4.35
2022-10-28T18:18:10.470Z,4.13
2022-10-28T18:22:13.414Z,3.90
2022-10-28T18:26:16.889Z,3.90
2022-10-28T18:30:19.706Z,4.97
2022-10-28T18:34:23.873Z,4.25
2022-10-28T18:38:26.992Z,4.68
2022-10-28T18:42:29.873Z,5.63
2022-10-28T18:46:35.487Z,5.00
2022-10-28T18:50:38.297Z,5.43
2022-10-28T18:54:41.200Z,4.50
2022-10-28T18:58:44.827Z,4.80
2022-10-28T19:02:48.211Z,4.53
2022-10-28T19:06:51.409Z,4.00
2022-10-28T19:10:58.482Z,4.10
2022-10-28T19:15:01.383Z,4.43
2022-10-28T19:19:05.544Z,4.00
2022-10-28T19:23:08.973Z,3.67
2022-10-28T19:27:12.467Z,4.07
2022-10-28T19:31:18.982Z,4.03
2022-10-28T19:35:21.943Z,4.28
2022-10-28T19:39:25.282Z,4.00
2022-10-28T19:43:28.274Z,5.13
2022-10-28T19:47:36.757Z,6.40
2022-10-28T19:52:02.856Z,5.15
2022-10-28T20:00:35.729Z,7.13
2022-10-28T20:04:41.871Z,6.15
2022-10-28T20:08:46.703Z,6.63
2022-10-28T20:12:49.574Z,4.75
2022-10-28T20:16:52.707Z,4.75
2022-10-28T20:20:55.651Z,5.78
2022-10-28T20:24:58.659Z,5.10
2022-10-28T20:29:03.133Z,7.43
2022-10-28T20:33:06.908Z,7.45
2022-10-28T20:37:10.329Z,8.57
2022-10-28T20:41:16.149Z,7.07
2022-10-28T20:45:20.192Z,8.43
2022-10-28T20:49:23.338Z,7.78
2022-10-28T20:54:04.176Z,7.68
2022-10-28T20:58:11.174Z,6.43
2022-10-28T21:07:26.942Z,6.37
2022-10-28T21:16:10.866Z,6.03
2022-10-28T21:20:14.073Z,7.57
2022-10-28T21:24:18.425Z,7.57
2022-10-28T21:28:22.819Z,7.32
2022-10-28T21:32:26.505Z,6.50
2022-10-28T21:36:32.181Z,7.07
2022-10-28T21:40:35.314Z,6.45
2022-10-28T21:44:38.219Z,6.57
2022-10-28T21:48:41.483Z,5.55
2022-10-28T21:52:44.477Z,6.07
2022-10-28T21:56:49.794Z,6.18
2022-10-28T22:00:52.713Z,6.55
2022-10-28T22:04:55.826Z,8.27
2022-10-28T22:09:03.465Z,4.88
2022-10-28T22:13:06.349Z,4.93
2022-10-28T22:17:09.728Z,5.30
2022-10-28T22:21:21.760Z,3.35
2022-10-28T22:25:24.703Z,3.22
2022-10-28T22:29:28.050Z,3.97
2022-10-28T22:33:32.431Z,4.22
2022-10-28T22:37:35.630Z,4.22
2022-10-28T22:41:38.836Z,4.45
2022-10-28T22:45:42.629Z,4.43
2022-10-28T22:49:46.776Z,4.30
2022-10-28T22:53:50.818Z,4.00
2022-10-28T22:57:54.476Z,5.07
2022-10-28T23:01:57.896Z,3.67
2022-10-28T23:06:00.852Z,2.78
2022-10-28T23:10:04.016Z,3.00
2022-10-28T23:14:07.058Z,4.57
2022-10-28T23:18:13.085Z,4.35
2022-10-28T23:22:17.208Z,4.32
2022-10-28T23:26:20.234Z,4.68
2022-10-28T23:30:25.319Z,4.72
2022-10-28T23:34:28.367Z,4.00
2022-10-28T23:38:32.555Z,3.45
2022-10-28T23:42:35.604Z,3.78
2022-10-28T23:46:38.681Z,4.05
2022-10-28T23:50:42.610Z,3.42
2022-10-28T23:54:45.641Z,4.00
2022-10-28T23:58:48.881Z,3.20
